createdAt,value
2022-11-09T00:01:40.185Z,18.02
2022-11-09T00:04:07.517Z,18.09
2022-11-09T00:06:34.753Z,17.95
2022-11-09T00:09:07.480Z,18.05
2022-11-09T00:11:34.929Z,17.89
2022-11-09T00:14:01.301Z,17.73
2022-11-09T00:16:27.673Z,18.00
2022-11-09T00:18:55.825Z,17.74
2022-11-09T00:21:24.102Z,18.10
2022-11-09T00:23:51.205Z,17.99
2022-11-09T00:26:18.962Z,17.64
2022-11-09T00:28:45.729Z,17.85
2022-11-09T00:31:14.585Z,18.07
2022-11-09T00:33:41.102Z,17.92
2022-11-09T00:36:11.343Z,17.62
2022-11-09T00:38:40.261Z,17.74
2022-11-09T00:41:08.907Z,17.82
2022-11-09T00:43:36.030Z,17.93
2022-11-09T00:46:03.246Z,17.93
2022-11-09T00:48:29.891Z,17.96
2022-11-09T00:50:57.476Z,18.00
2022-11-09T00:53:24.942Z,17.76
2022-11-09T00:55:59.714Z,17.89
2022-11-09T00:58:28.095Z,17.78
2022-11-09T01:00:57.228Z,17.91
2022-11-09T01:03:24.495Z,17.94
2022-11-09T01:05:51.399Z,17.86
2022-11-09T01:08:18.429Z,17.82
2022-11-09T01:10:47.547Z,17.70
2022-11-09T01:13:16.673Z,17.60
2022-11-09T01:15:45.370Z,17.64
2022-11-09T01:18:11.994Z,17.65
2022-11-09T01:20:40.331Z,17.60
2022-11-09T01:23:07.453Z,17.76
2022-11-09T01:25:34.084Z,17.64
2022-11-09T01:28:00.936Z,17.76
2022-11-09T01:30:27.954Z,17.78
2022-11-09T01:32:54.369Z,17.44
2022-11-09T01:35:20.719Z,17.54
2022-11-09T01:37:47.037Z,17.63
2022-11-09T01:40:13.605Z,17.13
2022-11-09T01:42:39.949Z,17.51
2022-11-09T01:45:21.892Z,17.46
2022-11-09T01:47:56.885Z,17.49
2022-11-09T01:50:36.103Z,17.47
2022-11-09T01:53:06.492Z,17.49
2022-11-09T01:55:33.064Z,17.43
2022-11-09T01:58:04.347Z,17.32
2022-11-09T02:00:32.779Z,17.55
2022-11-09T02:03:05.095Z,17.27
2022-11-09T02:05:34.940Z,17.35
2022-11-09T02:08:04.105Z,17.36
2022-11-09T02:10:50.059Z,17.53
2022-11-09T02:13:19.886Z,17.37
2022-11-09T02:15:49.092Z,17.00
2022-11-09T02:18:17.036Z,17.24
2022-11-09T02:20:57.861Z,17.28
2022-11-09T02:23:25.850Z,17.33
2022-11-09T02:26:01.375Z,17.26
2022-11-09T02:28:28.848Z,17.13
2022-11-09T02:30:57.092Z,16.99
2022-11-09T02:33:23.781Z,17.07
2022-11-09T02:35:50.253Z,17.21
2022-11-09T02:38:16.860Z,17.20
2022-11-09T02:40:47.985Z,17.35
2022-11-09T02:43:15.415Z,17.22
2022-11-09T02:45:41.821Z,17.06
2022-11-09T02:48:08.161Z,17.11
2022-11-09T02:50:36.079Z,17.22
2022-11-09T02:53:02.917Z,17.08
2022-11-09T02:55:29.239Z,17.29
2022-11-09T02:57:55.573Z,17.11
2022-11-09T03:00:22.053Z,17.20
2022-11-09T03:02:49.040Z,17.05
2022-11-09T03:05:15.393Z,17.05
2022-11-09T03:07:41.751Z,17.01
2022-11-09T03:10:08.510Z,17.33
2022-11-09T03:12:34.921Z,17.20
2022-11-09T03:15:03.976Z,17.00
2022-11-09T03:17:31.970Z,17.21
2022-11-09T03:19:58.488Z,17.34
2022-11-09T03:22:24.911Z,17.10
2022-11-09T03:24:51.328Z,17.40
2022-11-09T03:27:17.638Z,17.53
2022-11-09T03:29:44.043Z,17.21
2022-11-09T03:32:10.560Z,17.33
2022-11-09T03:34:36.973Z,17.53
2022-11-09T03:37:03.586Z,17.45
2022-11-09T03:39:30.005Z,16.81
2022-11-09T03:41:56.348Z,17.30
2022-11-09T03:44:22.678Z,17.29
2022-11-09T03:46:49.047Z,17.12
2022-11-09T03:49:15.400Z,17.40
2022-11-09T03:51:41.813Z,17.57
2022-11-09T03:54:08.281Z,17.52
2022-11-09T03:56:34.691Z,17.36
2022-11-09T03:59:01.023Z,17.37
2022-11-09T04:01:27.399Z,17.44
2022-11-09T04:03:53.772Z,17.38
2022-11-09T04:06:20.108Z,17.29
2022-11-09T04:08:51.124Z,16.86
2022-11-09T04:11:18.293Z,17.39
2022-11-09T04:13:44.633Z,17.31
2022-11-09T04:16:11.009Z,17.18
2022-11-09T04:18:37.367Z,17.13
2022-11-09T04:21:03.760Z,17.30
2022-11-09T04:23:30.133Z,17.23
2022-11-09T04:25:58.509Z,17.40
2022-11-09T04:28:24.896Z,17.27
2022-11-09T04:30:51.210Z,17.34
2022-11-09T04:33:17.881Z,17.06
2022-11-09T04:35:44.417Z,17.36
2022-11-09T04:38:13.151Z,17.43
2022-11-09T04:40:40.094Z,17.48
2022-11-09T04:43:07.981Z,17.26
2022-11-09T04:45:34.801Z,16.85
2022-11-09T04:48:03.406Z,17.23
2022-11-09T04:50:30.535Z,17.36
2022-11-09T04:53:13.397Z,17.30
2022-11-09T04:55:40.504Z,17.52
2022-11-09T04:58:07.422Z,17.47
2022-11-09T05:00:34.155Z,17.37
2022-11-09T05:03:05.417Z,17.46
2022-11-09T05:05:36.645Z,17.50
2022-11-09T05:08:04.230Z,17.41
2022-11-09T05:10:31.365Z,17.12
2022-11-09T05:13:02.400Z,17.37
2022-11-09T05:15:28.865Z,17.38
2022-11-09T05:17:55.912Z,17.46
2022-11-09T05:20:22.540Z,17.29
2022-11-09T05:23:07.669Z,17.26
2022-11-09T05:25:34.229Z,17.34
2022-11-09T05:28:00.599Z,17.36
2022-11-09T05:30:36.362Z,17.38
2022-11-09T05:33:02.766Z,17.06
2022-11-09T05:35:29.118Z,17.36
2022-11-09T05:37:55.417Z,17.08
2022-11-09T05:40:21.990Z,17.22
2022-11-09T05:42:48.280Z,17.25
2022-11-09T05:48:04.536Z,17.12
2022-11-09T05:50:31.041Z,17.28
2022-11-09T05:53:00.203Z,16.91
2022-11-09T05:55:27.118Z,17.09
2022-11-09T05:57:53.823Z,16.92
2022-11-09T06:00:21.157Z,17.33
2022-11-09T06:02:47.509Z,17.13
2022-11-09T06:05:14.510Z,17.25
2022-11-09T06:07:40.804Z,16.94
2022-11-09T06:10:07.998Z,16.98
2022-11-09T06:12:34.819Z,17.14
2022-11-09T06:15:01.267Z,16.96
2022-11-09T06:17:27.873Z,16.96
2022-11-09T06:19:54.287Z,16.92
2022-11-09T06:22:20.611Z,17.21
2022-11-09T06:24:46.923Z,16.99
2022-11-09T06:27:13.253Z,16.91
2022-11-09T06:29:40.114Z,16.79
2022-11-09T06:32:06.488Z,16.60
2022-11-09T06:34:32.933Z,16.87
2022-11-09T06:36:59.264Z,16.83
2022-11-09T06:39:25.813Z,16.73
2022-11-09T06:41:52.271Z,16.48
2022-11-09T06:44:18.580Z,16.70
2022-11-09T06:46:44.918Z,16.82
2022-11-09T06:49:11.381Z,16.80
2022-11-09T06:51:37.702Z,16.91
2022-11-09T06:54:04.029Z,16.57
2022-11-09T06:56:30.385Z,16.76
2022-11-09T06:58:56.708Z,16.78
2022-11-09T07:01:28.326Z,16.79
2022-11-09T07:03:54.807Z,16.82
2022-11-09T07:06:21.144Z,16.68
2022-11-09T07:08:47.597Z,16.57
2022-11-09T07:11:19.566Z,16.44
2022-11-09T07:13:52.256Z,16.80
2022-11-09T07:16:21.206Z,16.41
2022-11-09T07:18:47.527Z,16.60
2022-11-09T07:21:14.559Z,16.56
2022-11-09T07:23:42.243Z,16.74
2022-11-09T07:26:09.265Z,16.65
2022-11-09T07:28:35.643Z,16.40
2022-11-09T07:31:02.075Z,16.72
2022-11-09T07:33:30.465Z,16.61
2022-11-09T07:36:05.115Z,16.73
2022-11-09T07:38:31.521Z,16.60
2022-11-09T07:40:59.136Z,16.82
2022-11-09T07:43:25.817Z,16.62
2022-11-09T07:45:52.483Z,16.55
2022-11-09T07:48:18.843Z,16.63
2022-11-09T07:50:45.351Z,16.64
2022-11-09T07:53:14.502Z,16.78
2022-11-09T07:55:41.633Z,16.46
2022-11-09T07:58:15.146Z,16.65
2022-11-09T08:00:43.171Z,16.53
2022-11-09T08:03:09.922Z,16.67
2022-11-09T08:05:37.125Z,16.79
2022-11-09T08:08:06.952Z,16.72
2022-11-09T08:10:34.988Z,16.84
2022-11-09T08:13:10.753Z,16.90
2022-11-09T08:15:38.296Z,16.70
2022-11-09T08:18:08.350Z,16.89
2022-11-09T08:20:34.898Z,16.71
2022-11-09T08:23:04.900Z,16.90
2022-11-09T08:25:35.789Z,16.80
2022-11-09T08:28:03.520Z,16.92
2022-11-09T08:30:30.433Z,17.02
2022-11-09T08:32:58.728Z,16.88
2022-11-09T08:35:25.689Z,17.01
2022-11-09T08:37:53.388Z,16.73
2022-11-09T08:40:22.411Z,17.08
2022-11-09T08:42:49.086Z,16.96
2022-11-09T08:45:16.911Z,17.20
2022-11-09T08:47:43.367Z,16.95
2022-11-09T08:50:11.615Z,16.97
2022-11-09T08:52:38.080Z,17.14
2022-11-09T08:55:05.252Z,17.19
2022-11-09T08:57:31.647Z,16.96
2022-11-09T08:59:58.185Z,17.46
2022-11-09T09:02:24.940Z,17.29
2022-11-09T09:04:51.243Z,17.33
2022-11-09T09:07:17.593Z,17.63
2022-11-09T09:09:45.039Z,17.73
2022-11-09T09:12:11.365Z,17.53
2022-11-09T09:14:37.744Z,17.43
2022-11-09T09:17:04.964Z,17.32
2022-11-09T09:19:31.948Z,17.37
2022-11-09T09:21:59.046Z,17.22
2022-11-09T09:24:26.653Z,17.19
2022-11-09T09:26:52.980Z,17.61
2022-11-09T09:29:19.281Z,17.50
2022-11-09T09:31:45.640Z,18.03
2022-11-09T09:34:12.551Z,17.74
2022-11-09T09:36:44.736Z,17.66
2022-11-09T09:39:14.101Z,17.58
2022-11-09T09:41:47.975Z,17.54
2022-11-09T09:44:20.387Z,17.65
2022-11-09T09:47:04.081Z,17.65
2022-11-09T09:49:34.642Z,17.82
2022-11-09T09:52:12.299Z,17.71
2022-11-09T09:54:47.575Z,17.62
2022-11-09T09:57:19.116Z,17.51
2022-11-09T09:59:50.710Z,17.69
2022-11-09T10:02:22.842Z,17.54
2022-11-09T10:04:50.144Z,18.13
2022-11-09T10:07:24.553Z,18.38
2022-11-09T10:09:59.637Z,19.28
2022-11-09T10:12:38.132Z,19.41
2022-11-09T10:15:26.286Z,19.75
2022-11-09T10:18:18.083Z,19.58
2022-11-09T10:21:18.412Z,20.21
2022-11-09T10:23:56.815Z,20.46
2022-11-09T10:26:38.375Z,20.50
2022-11-09T10:29:26.197Z,20.42
2022-11-09T10:32:01.606Z,20.45
2022-11-09T10:34:51.985Z,20.39
2022-11-09T10:37:38.901Z,20.48
2022-11-09T10:40:07.920Z,20.95
2022-11-09T10:42:34.418Z,20.95
2022-11-09T10:45:12.410Z,20.54
2022-11-09T10:47:50.828Z,20.49
2022-11-09T10:50:32.281Z,20.92
2022-11-09T10:53:29.306Z,21.44
2022-11-09T10:55:58.664Z,21.70
2022-11-09T10:58:35.119Z,21.62
2022-11-09T11:01:14.213Z,22.04
2022-11-09T11:03:42.236Z,22.27
2022-11-09T11:06:18.937Z,22.13
2022-11-09T11:08:47.948Z,22.44
2022-11-09T11:11:33.223Z,23.61
2022-11-09T11:14:28.182Z,23.49
2022-11-09T11:16:56.030Z,23.39
2022-11-09T11:19:29.469Z,22.76
2022-11-09T11:22:24.715Z,21.84
2022-11-09T11:25:04.666Z,22.79
2022-11-09T11:27:50.329Z,22.34
2022-11-09T11:30:20.031Z,20.95
2022-11-09T11:32:50.343Z,20.34
2022-11-09T11:35:28.785Z,19.41
2022-11-09T11:38:19.436Z,19.31
2022-11-09T11:41:05.364Z,18.78
2022-11-09T11:43:45.010Z,19.01
2022-11-09T11:46:45.506Z,19.09
2022-11-09T11:49:20.578Z,18.87
2022-11-09T11:52:10.401Z,18.72
2022-11-09T11:54:54.114Z,18.38
2022-11-09T11:57:38.331Z,18.52
2022-11-09T12:00:15.375Z,18.39
2022-11-09T12:03:25.413Z,18.74
2022-11-09T12:06:52.324Z,18.25
2022-11-09T12:09:45.026Z,18.32
2022-11-09T12:12:51.843Z,18.51
2022-11-09T12:15:52.109Z,18.05
2022-11-09T12:18:42.864Z,18.16
2022-11-09T12:21:18.612Z,18.12
2022-11-09T12:24:26.110Z,18.38
2022-11-09T12:27:30.962Z,18.41
2022-11-09T12:30:14.002Z,18.80
2022-11-09T12:32:55.678Z,18.54
2022-11-09T12:35:44.213Z,18.61
2022-11-09T12:38:31.327Z,18.54
2022-11-09T12:41:05.256Z,18.35
2022-11-09T12:43:57.476Z,18.17
2022-11-09T12:46:29.636Z,18.44
2022-11-09T12:49:01.714Z,18.54
2022-11-09T12:51:28.776Z,18.48
2022-11-09T12:53:56.897Z,17.75
2022-11-09T12:56:29.942Z,18.37
2022-11-09T12:59:27.535Z,18.38
2022-11-09T13:01:57.371Z,18.44
2022-11-09T13:04:25.651Z,18.48
2022-11-09T13:07:04.218Z,18.09
2022-11-09T13:09:44.152Z,18.16
2022-11-09T13:12:33.609Z,18.36
2022-11-09T13:15:22.175Z,18.19
2022-11-09T13:18:02.699Z,18.17
2022-11-09T13:23:54.756Z,18.53
2022-11-09T13:26:33.765Z,18.30
2022-11-09T13:29:21.636Z,18.73
2022-11-09T13:32:12.428Z,18.29
2022-11-09T13:34:43.013Z,18.33
2022-11-09T13:37:34.887Z,18.50
2022-11-09T13:40:02.328Z,18.39
2022-11-09T13:42:32.440Z,18.27
2022-11-09T13:45:27.844Z,18.21
2022-11-09T13:47:54.897Z,17.97
2022-11-09T13:50:27.252Z,18.17
2022-11-09T13:52:56.850Z,17.91
2022-11-09T13:55:38.668Z,17.94
2022-11-09T13:58:30.849Z,18.26
2022-11-09T14:00:57.480Z,18.45
2022-11-09T14:03:28.853Z,17.98
2022-11-09T14:05:59.115Z,17.65
2022-11-09T14:08:37.578Z,17.36
2022-11-09T14:11:40.002Z,17.61
2022-11-09T14:14:30.273Z,17.23
2022-11-09T14:17:07.439Z,17.55
2022-11-09T14:19:56.238Z,17.24
2022-11-09T14:22:22.854Z,16.92
2022-11-09T14:24:49.742Z,16.64
2022-11-09T14:27:20.225Z,16.92
2022-11-09T14:29:47.961Z,17.13
2022-11-09T14:32:25.142Z,16.96
2022-11-09T14:34:51.723Z,16.87
2022-11-09T14:37:18.673Z,16.84
2022-11-09T14:39:50.133Z,17.05
2022-11-09T14:42:20.609Z,16.91
2022-11-09T14:44:52.835Z,17.16
2022-11-09T14:47:27.176Z,17.43
2022-11-09T14:49:53.792Z,17.47
2022-11-09T14:52:26.548Z,17.56
2022-11-09T14:54:54.039Z,17.39
2022-11-09T14:57:22.867Z,17.75
2022-11-09T14:59:49.284Z,17.71
2022-11-09T15:02:18.718Z,17.83
2022-11-09T15:05:02.376Z,17.85
2022-11-09T15:07:34.281Z,17.70
2022-11-09T15:10:07.697Z,17.69
2022-11-09T15:12:35.521Z,17.73
2022-11-09T15:15:05.906Z,17.63
2022-11-09T15:17:37.110Z,17.84
2022-11-09T15:20:09.155Z,17.76
2022-11-09T15:23:02.150Z,17.45
2022-11-09T15:25:34.386Z,17.16
2022-11-09T15:28:12.952Z,16.99
2022-11-09T15:30:46.412Z,16.69
2022-11-09T15:33:20.613Z,16.69
2022-11-09T15:35:51.060Z,16.69
2022-11-09T15:38:55.682Z,16.45
2022-11-09T15:41:24.756Z,16.56
2022-11-09T15:43:51.489Z,16.32
2022-11-09T15:46:21.339Z,16.40
2022-11-09T15:48:48.108Z,16.15
2022-11-09T15:51:15.854Z,16.34
2022-11-09T15:53:42.457Z,16.50
2022-11-09T15:56:25.260Z,16.48
2022-11-09T15:58:53.412Z,16.65
2022-11-09T16:01:19.806Z,16.60
2022-11-09T16:03:46.149Z,16.71
2022-11-09T16:06:22.396Z,16.56
2022-11-09T16:08:50.060Z,16.86
2022-11-09T16:11:16.708Z,16.84
2022-11-09T16:13:43.129Z,16.89
2022-11-09T16:16:11.967Z,17.04
2022-11-09T16:18:38.334Z,16.76
2022-11-09T16:21:13.720Z,16.92
2022-11-09T16:23:40.360Z,17.05
2022-11-09T16:26:09.513Z,16.86
2022-11-09T16:28:37.096Z,16.88
2022-11-09T16:31:03.930Z,16.83
2022-11-09T16:33:30.688Z,16.81
2022-11-09T16:36:00.560Z,16.75
2022-11-09T16:38:33.906Z,16.53
2022-11-09T16:41:02.918Z,16.40
2022-11-09T16:43:36.219Z,16.62
2022-11-09T16:46:02.582Z,16.38
2022-11-09T16:48:33.085Z,16.36
2022-11-09T16:50:59.595Z,16.35
2022-11-09T16:53:27.249Z,16.17
2022-11-09T16:55:54.240Z,15.81
2022-11-09T16:58:21.004Z,16.09
2022-11-09T17:01:09.536Z,16.01
2022-11-09T17:03:36.017Z,15.85
2022-11-09T17:06:03.441Z,16.21
2022-11-09T17:08:29.744Z,16.31
2022-11-09T17:10:56.131Z,16.12
2022-11-09T17:13:22.458Z,16.21
2022-11-09T17:15:51.778Z,16.51
2022-11-09T17:18:18.403Z,16.41
2022-11-09T17:20:48.013Z,16.49
2022-11-09T17:23:16.193Z,16.02
2022-11-09T17:25:42.508Z,15.89
2022-11-09T17:28:08.991Z,15.86
2022-11-09T17:30:35.384Z,15.81
2022-11-09T17:33:01.708Z,15.69
2022-11-09T17:35:28.768Z,15.69
2022-11-09T17:37:55.064Z,15.57
2022-11-09T17:40:21.449Z,16.02
2022-11-09T17:42:47.924Z,15.72
2022-11-09T17:45:14.373Z,15.74
2022-11-09T17:47:41.428Z,15.63
2022-11-09T17:50:08.197Z,15.51
2022-11-09T17:52:34.571Z,15.60
2022-11-09T17:55:00.898Z,15.58
2022-11-09T17:57:27.225Z,15.54
2022-11-09T17:59:53.594Z,15.79
2022-11-09T18:02:20.058Z,15.69
2022-11-09T18:04:46.542Z,15.40
2022-11-09T18:07:12.950Z,15.25
2022-11-09T18:09:42.112Z,15.82
2022-11-09T18:12:09.426Z,16.05
2022-11-09T18:14:35.808Z,15.82
2022-11-09T18:17:02.310Z,15.81
2022-11-09T18:19:28.699Z,15.84
2022-11-09T18:21:55.040Z,15.76
2022-11-09T18:24:21.354Z,15.56
2022-11-09T18:26:47.665Z,15.82
2022-11-09T18:29:13.974Z,16.06
2022-11-09T18:31:40.307Z,15.70
2022-11-09T18:34:06.631Z,15.35
2022-11-09T18:36:32.978Z,15.34
2022-11-09T18:38:59.340Z,15.38
2022-11-09T18:41:25.750Z,15.53
2022-11-09T18:43:53.884Z,15.64
2022-11-09T18:46:21.387Z,15.78
2022-11-09T18:48:52.460Z,15.73
2022-11-09T18:51:19.338Z,15.61
2022-11-09T18:53:47.505Z,15.67
2022-11-09T18:56:19.013Z,15.79
2022-11-09T18:58:45.947Z,15.82
2022-11-09T19:01:12.724Z,15.58
2022-11-09T19:03:39.183Z,15.58
2022-11-09T19:06:07.276Z,15.68
2022-11-09T19:08:52.622Z,15.80
2022-11-09T19:11:19.136Z,15.68
2022-11-09T19:13:45.444Z,15.64
2022-11-09T19:16:13.340Z,15.85
2022-11-09T19:18:39.960Z,15.45
2022-11-09T19:21:17.681Z,15.47
2022-11-09T19:23:43.994Z,15.49
2022-11-09T19:26:10.308Z,15.33
2022-11-09T19:28:36.600Z,15.64
2022-11-09T19:31:02.939Z,15.53
2022-11-09T19:33:29.242Z,15.59
2022-11-09T19:36:23.214Z,15.50
2022-11-09T19:38:44.604Z,15.34
2022-11-09T19:41:11.458Z,15.36
2022-11-09T19:43:37.794Z,15.34
2022-11-09T19:46:04.606Z,15.15
2022-11-09T19:48:32.901Z,15.06
2022-11-09T19:50:59.288Z,15.16
2022-11-09T19:53:26.606Z,15.07
2022-11-09T19:56:04.198Z,15.17
2022-11-09T19:58:31.737Z,15.05
2022-11-09T20:01:05.929Z,15.25
2022-11-09T20:03:37.408Z,15.34
2022-11-09T20:06:05.360Z,15.25
2022-11-09T20:08:33.622Z,14.87
2022-11-09T20:11:34.687Z,14.81
2022-11-09T20:14:01.386Z,15.08
2022-11-09T20:16:27.873Z,14.95
2022-11-09T20:18:54.750Z,15.06
2022-11-09T20:21:22.333Z,14.88
2022-11-09T20:23:48.863Z,15.07
2022-11-09T20:26:15.182Z,15.03
2022-11-09T20:28:41.813Z,15.24
2022-11-09T20:31:13.157Z,15.26
2022-11-09T20:33:39.537Z,15.36
2022-11-09T20:36:06.193Z,15.17
2022-11-09T20:38:33.447Z,15.01
2022-11-09T20:41:02.198Z,15.01
2022-11-09T20:43:28.791Z,14.95
2022-11-09T20:45:55.746Z,15.05
2022-11-09T20:48:51.546Z,14.95
2022-11-09T20:51:11.994Z,14.74
2022-11-09T20:53:38.766Z,14.87
2022-11-09T20:56:05.297Z,15.02
2022-11-09T20:58:31.606Z,14.82
2022-11-09T21:01:14.109Z,14.89
2022-11-09T21:03:40.712Z,14.97
2022-11-09T21:06:08.592Z,14.84
2022-11-09T21:08:35.305Z,14.67
2022-11-09T21:11:03.603Z,15.01
2022-11-09T21:13:30.890Z,15.00
2022-11-09T21:16:07.753Z,15.05
2022-11-09T21:18:34.577Z,14.87
2022-11-09T21:21:05.977Z,14.91
2022-11-09T21:23:50.878Z,14.87
2022-11-09T21:26:35.593Z,14.82
2022-11-09T21:29:20.348Z,14.97
2022-11-09T21:31:46.707Z,14.69
2022-11-09T21:34:13.012Z,14.79
2022-11-09T21:36:42.267Z,14.72
2022-11-09T21:39:08.673Z,14.89
2022-11-09T21:41:37.816Z,14.52
2022-11-09T21:44:05.598Z,14.89
2022-11-09T21:46:32.169Z,14.95
2022-11-09T21:48:58.515Z,14.95
2022-11-09T21:51:25.146Z,14.91
2022-11-09T21:53:51.596Z,14.93
2022-11-09T21:56:18.308Z,14.80
2022-11-09T21:58:48.599Z,14.88
2022-11-09T22:01:16.504Z,14.90
2022-11-09T22:03:45.290Z,15.11
2022-11-09T22:06:12.679Z,15.16
2022-11-09T22:08:39.343Z,14.98
2022-11-09T22:11:17.350Z,14.60
2022-11-09T22:14:02.904Z,14.76
2022-11-09T22:16:33.740Z,14.85
2022-11-09T22:19:21.514Z,14.86
2022-11-09T22:21:47.846Z,14.88
2022-11-09T22:24:14.173Z,14.83
2022-11-09T22:26:40.476Z,14.55
2022-11-09T22:29:06.818Z,14.94
2022-11-09T22:31:33.251Z,14.84
2022-11-09T22:33:59.585Z,14.88
2022-11-09T22:36:25.897Z,14.82
2022-11-09T22:38:52.284Z,14.86
2022-11-09T22:41:18.671Z,14.92
2022-11-09T22:43:45.120Z,15.08
2022-11-09T22:46:14.106Z,15.08
2022-11-09T22:48:41.730Z,15.02
2022-11-09T22:51:08.937Z,15.09
2022-11-09T22:53:35.347Z,14.82
2022-11-09T22:56:03.347Z,14.81
2022-11-09T22:58:30.324Z,15.12
2022-11-09T23:01:10.301Z,15.16
2022-11-09T23:03:36.699Z,15.03
2022-11-09T23:06:09.164Z,14.63
2022-11-09T23:08:39.325Z,15.00
2022-11-09T23:11:07.359Z,15.01
2022-11-09T23:13:36.760Z,14.95
2022-11-09T23:16:06.050Z,14.45
2022-11-09T23:18:51.303Z,14.89
2022-11-09T23:21:18.381Z,14.68
2022-11-09T23:23:45.002Z,14.61
2022-11-09T23:26:12.169Z,14.52
2022-11-09T23:28:38.790Z,14.65
2022-11-09T23:31:07.888Z,14.69
2022-11-09T23:33:34.932Z,14.79
2022-11-09T23:36:03.051Z,14.75
2022-11-09T23:38:31.640Z,14.78
2022-11-09T23:41:05.128Z,14.59
2022-11-09T23:43:31.762Z,14.71
2022-11-09T23:46:03.204Z,14.51
2022-11-09T23:48:29.584Z,14.51
2022-11-09T23:51:00.451Z,14.69
2022-11-09T23:53:28.497Z,14.61
2022-11-09T23:55:59.180Z,14.52
2022-11-09T23:58:25.520Z,14.59
